createdAt,value
2022-09-12T00:01:44.342Z,4.47
2022-09-12T00:04:31.394Z,4.77
2022-09-12T00:07:18.174Z,7.53
2022-09-12T00:10:05.357Z,5.53
2022-09-12T00:12:53.615Z,2.73
2022-09-12T00:15:41.431Z,4.00
2022-09-12T00:18:28.381Z,4.13
2022-09-12T00:21:15.771Z,4.43
2022-09-12T00:24:03.573Z,4.67
2022-09-12T00:26:50.580Z,4.20
2022-09-12T00:29:38.553Z,4.13
2022-09-12T00:32:25.887Z,5.67
2022-09-12T00:35:13.049Z,5.33
2022-09-12T00:37:59.775Z,5.13
2022-09-12T00:40:46.858Z,5.40
2022-09-12T00:43:39.834Z,6.73
2022-09-12T00:46:39.151Z,5.23
2022-09-12T00:49:30.293Z,4.77
2022-09-12T00:52:21.819Z,5.93
2022-09-12T00:55:13.327Z,4.83
2022-09-12T00:58:04.972Z,6.30
2022-09-12T01:00:52.511Z,7.23
2022-09-12T01:03:41.188Z,13.43
2022-09-12T01:06:31.382Z,11.50
2022-09-12T01:09:20.852Z,23.17
2022-09-12T01:12:08.238Z,9.63
2022-09-12T01:14:54.782Z,10.73
2022-09-12T01:17:52.466Z,18.10
2022-09-12T01:21:10.267Z,6.73
2022-09-12T01:24:28.904Z,5.00
2022-09-12T01:27:53.988Z,9.20
2022-09-12T01:30:46.575Z,6.57
2022-09-12T01:33:57.177Z,10.73
2022-09-12T01:36:52.909Z,7.30
2022-09-12T01:39:46.068Z,12.53
2022-09-12T01:42:41.121Z,7.00
2022-09-12T01:45:34.503Z,17.17
2022-09-12T01:48:27.672Z,14.83
2022-09-12T01:51:22.203Z,10.50
2022-09-12T01:54:13.715Z,12.40
2022-09-12T01:57:05.797Z,12.87
2022-09-12T01:59:56.490Z,27.30
2022-09-12T02:02:50.670Z,12.83
2022-09-12T02:05:43.129Z,27.27
2022-09-12T02:08:33.163Z,40.40
2022-09-12T02:11:20.438Z,19.70
2022-09-12T02:14:10.477Z,23.07
2022-09-12T02:17:01.413Z,6.70
2022-09-12T02:19:52.529Z,10.00
2022-09-12T02:22:42.839Z,13.97
2022-09-12T02:25:31.529Z,22.70
2022-09-12T02:28:24.282Z,14.10
2022-09-12T02:31:18.003Z,13.33
2022-09-12T02:34:15.056Z,11.97
2022-09-12T02:37:09.198Z,4.10
2022-09-12T02:39:58.474Z,3.93
2022-09-12T02:42:45.657Z,4.33
2022-09-12T02:45:34.510Z,5.20
2022-09-12T02:48:24.837Z,5.30
2022-09-12T02:51:12.856Z,4.77
2022-09-12T02:54:00.817Z,3.60
2022-09-12T02:56:49.174Z,3.47
2022-09-12T02:59:35.967Z,11.23
2022-09-12T03:02:33.389Z,5.03
2022-09-12T03:05:28.006Z,12.43
2022-09-12T03:08:36.422Z,5.90
2022-09-12T03:11:43.186Z,13.53
2022-09-12T03:14:49.084Z,17.50
2022-09-12T03:17:45.217Z,6.57
2022-09-12T03:20:45.622Z,5.93
2022-09-12T03:23:38.264Z,3.83
2022-09-12T03:26:32.230Z,5.13
2022-09-12T03:29:20.408Z,5.90
2022-09-12T03:32:08.627Z,7.10
2022-09-12T03:34:55.482Z,20.63
2022-09-12T03:37:43.009Z,11.50
2022-09-12T03:40:29.678Z,4.40
2022-09-12T03:43:16.578Z,6.97
2022-09-12T03:46:03.573Z,14.67
2022-09-12T03:48:51.876Z,9.23
2022-09-12T03:51:38.820Z,3.53
2022-09-12T03:54:25.660Z,4.20
2022-09-12T03:57:12.342Z,5.00
2022-09-12T03:59:59.025Z,12.93
2022-09-12T04:02:45.888Z,4.93
2022-09-12T04:05:34.109Z,17.73
2022-09-12T04:08:20.754Z,11.43
2022-09-12T04:11:09.617Z,13.93
2022-09-12T04:13:56.324Z,4.67
2022-09-12T04:16:43.311Z,15.80
2022-09-12T04:19:30.417Z,6.80
2022-09-12T04:22:18.536Z,9.00
2022-09-12T04:25:06.108Z,45.83
2022-09-12T04:27:52.990Z,13.77
2022-09-12T04:30:39.863Z,16.03
2022-09-12T04:33:27.245Z,40.10
2022-09-12T04:36:16.906Z,22.93
2022-09-12T04:39:06.504Z,18.23
2022-09-12T04:41:53.623Z,10.93
2022-09-12T04:44:40.643Z,10.27
2022-09-12T04:47:27.297Z,10.33
2022-09-12T04:50:14.943Z,15.67
2022-09-12T04:53:01.752Z,43.97
2022-09-12T04:55:49.694Z,40.27
2022-09-12T04:58:36.624Z,28.47
2022-09-12T05:01:24.391Z,12.00
2022-09-12T05:04:12.043Z,9.87
2022-09-12T05:06:58.861Z,7.03
2022-09-12T05:09:47.192Z,8.27
2022-09-12T05:12:36.164Z,5.07
2022-09-12T05:15:24.437Z,28.83
2022-09-12T05:18:11.039Z,32.53
2022-09-12T05:21:00.253Z,7.73
2022-09-12T05:23:48.798Z,17.73
2022-09-12T05:26:35.596Z,24.23
2022-09-12T05:29:25.142Z,4.33
2022-09-12T05:32:12.577Z,11.13
2022-09-12T05:34:59.015Z,13.10
2022-09-12T05:37:45.815Z,16.73
2022-09-12T05:40:32.713Z,8.70
2022-09-12T05:43:20.389Z,12.37
2022-09-12T05:46:10.859Z,5.50
2022-09-12T05:48:58.549Z,24.90
2022-09-12T05:51:46.460Z,31.80
2022-09-12T05:54:34.412Z,40.53
2022-09-12T05:57:21.503Z,51.37
2022-09-12T06:00:09.964Z,51.53
2022-09-12T06:02:57.974Z,37.90
2022-09-12T06:05:48.767Z,68.83
2022-09-12T06:08:37.541Z,43.00
2022-09-12T06:11:26.728Z,28.93
2022-09-12T06:14:15.766Z,21.03
2022-09-12T06:17:02.740Z,36.70
2022-09-12T06:19:51.282Z,38.17
2022-09-12T06:22:38.038Z,42.10
2022-09-12T06:25:25.237Z,9.60
2022-09-12T06:28:11.797Z,8.53
2022-09-12T06:31:04.571Z,12.97
2022-09-12T06:33:53.595Z,4.63
2022-09-12T06:36:43.695Z,7.17
2022-09-12T06:39:31.627Z,10.53
2022-09-12T06:42:20.044Z,10.87
2022-09-12T06:45:08.176Z,6.17
2022-09-12T06:47:56.092Z,15.37
2022-09-12T06:50:43.249Z,6.60
2022-09-12T06:53:33.375Z,11.87
2022-09-12T06:56:21.739Z,9.40
2022-09-12T06:59:09.365Z,18.63
2022-09-12T07:01:56.625Z,4.80
2022-09-12T07:04:43.502Z,17.60
2022-09-12T07:07:34.237Z,5.83
2022-09-12T07:10:22.691Z,5.60
2022-09-12T07:13:09.764Z,3.83
2022-09-12T07:15:56.664Z,5.80
2022-09-12T07:18:46.734Z,4.68
2022-09-12T07:21:33.405Z,3.35
2022-09-12T07:24:20.149Z,4.38
2022-09-12T07:27:09.094Z,3.90
2022-09-12T07:29:55.922Z,2.67
2022-09-12T07:32:42.669Z,5.30
2022-09-12T07:35:29.732Z,2.58
2022-09-12T07:38:16.343Z,4.47
2022-09-12T07:41:03.613Z,2.70
2022-09-12T07:43:53.164Z,2.95
2022-09-12T07:46:40.218Z,3.40
2022-09-12T07:49:27.300Z,1.88
2022-09-12T07:52:13.755Z,3.40
2022-09-12T07:55:00.440Z,1.77
2022-09-12T07:57:50.033Z,2.60
2022-09-12T08:00:38.232Z,2.75
2022-09-12T08:03:25.161Z,1.85
2022-09-12T08:06:15.223Z,2.83
2022-09-12T08:09:02.617Z,3.42
2022-09-12T08:11:49.852Z,1.52
2022-09-12T08:14:36.873Z,3.53
2022-09-12T08:17:28.948Z,4.30
2022-09-12T08:20:16.040Z,2.40
2022-09-12T08:23:03.267Z,2.05
2022-09-12T08:25:50.067Z,1.73
2022-09-12T08:28:38.052Z,2.70
2022-09-12T08:31:26.822Z,2.63
2022-09-12T08:34:17.149Z,2.13
2022-09-12T08:37:04.187Z,1.55
2022-09-12T08:39:51.326Z,4.55
2022-09-12T08:42:49.955Z,2.55
2022-09-12T08:45:42.513Z,2.47
2022-09-12T08:48:29.672Z,2.00
2022-09-12T08:51:21.279Z,2.22
2022-09-12T08:54:21.454Z,3.13
2022-09-12T08:57:13.009Z,3.42
2022-09-12T09:00:00.439Z,2.00
2022-09-12T09:03:04.443Z,1.67
2022-09-12T09:05:59.110Z,1.52
2022-09-12T09:08:58.453Z,4.18
2022-09-12T09:11:58.920Z,1.63
2022-09-12T09:15:02.433Z,1.25
2022-09-12T09:17:53.444Z,1.17
2022-09-12T09:20:46.750Z,0.80
2022-09-12T09:23:37.706Z,2.28
2022-09-12T09:26:31.038Z,1.83
2022-09-12T09:29:20.530Z,2.45
2022-09-12T09:32:16.457Z,0.82
2022-09-12T09:35:04.364Z,1.65
2022-09-12T09:38:02.910Z,0.80
2022-09-12T09:41:02.215Z,1.27
2022-09-12T09:43:50.319Z,1.00
2022-09-12T09:46:37.317Z,1.10
2022-09-12T09:49:26.008Z,1.50
2022-09-12T09:52:16.817Z,2.35
2022-09-12T09:55:05.129Z,1.77
2022-09-12T09:57:52.840Z,2.22
2022-09-12T10:00:44.832Z,1.50
2022-09-12T10:03:34.553Z,2.58
2022-09-12T10:06:31.141Z,1.45
2022-09-12T10:09:24.922Z,1.02
2022-09-12T10:12:26.325Z,2.65
2022-09-12T10:15:20.146Z,1.42
2022-09-12T10:18:08.347Z,2.15
2022-09-12T10:20:55.228Z,0.95
2022-09-12T10:23:43.170Z,5.43
2022-09-12T10:26:35.751Z,1.55
2022-09-12T10:29:26.571Z,1.88
2022-09-12T10:32:16.268Z,2.80
2022-09-12T10:35:09.168Z,1.80
2022-09-12T10:37:58.817Z,2.17
2022-09-12T10:40:45.898Z,1.05
2022-09-12T10:43:37.413Z,0.90
2022-09-12T10:46:30.587Z,1.77
2022-09-12T10:49:29.902Z,1.88
2022-09-12T10:52:24.211Z,1.60
2022-09-12T10:55:15.889Z,4.00
2022-09-12T10:58:31.990Z,1.58
2022-09-12T11:01:35.149Z,0.57
2022-09-12T11:04:28.592Z,2.75
2022-09-12T11:07:34.282Z,0.77
2022-09-12T11:10:37.468Z,1.38
2022-09-12T11:13:41.548Z,2.33
2022-09-12T11:16:36.476Z,2.45
2022-09-12T11:19:49.887Z,1.90
2022-09-12T11:22:59.058Z,1.40
2022-09-12T11:25:50.857Z,1.10
2022-09-12T11:28:49.117Z,0.85
2022-09-12T11:31:57.390Z,1.55
2022-09-12T11:34:56.105Z,0.80
2022-09-12T11:37:56.430Z,0.80
2022-09-12T11:40:47.114Z,0.70
2022-09-12T11:43:39.812Z,1.45
2022-09-12T11:46:33.038Z,2.22
2022-09-12T11:49:35.395Z,1.27
2022-09-12T11:52:25.283Z,1.90
2022-09-12T11:55:19.927Z,1.25
2022-09-12T11:58:09.277Z,2.78
2022-09-12T12:00:59.845Z,4.97
2022-09-12T12:03:48.490Z,1.25
2022-09-12T12:06:44.593Z,1.38
2022-09-12T12:09:31.868Z,3.90
2022-09-12T12:12:25.061Z,1.95
2022-09-12T12:15:17.442Z,2.10
2022-09-12T12:18:07.294Z,1.80
2022-09-12T12:20:55.533Z,0.73
2022-09-12T12:23:57.527Z,1.83
2022-09-12T12:27:01.004Z,1.25
2022-09-12T12:29:49.348Z,2.25
2022-09-12T12:32:36.515Z,1.75
2022-09-12T12:35:40.217Z,1.23
2022-09-12T12:38:31.853Z,1.02
2022-09-12T12:41:44.311Z,1.02
2022-09-12T12:44:52.644Z,1.77
2022-09-12T12:47:44.191Z,2.05
2022-09-12T12:50:32.702Z,0.70
2022-09-12T12:53:24.126Z,1.77
2022-09-12T12:56:28.932Z,0.85
2022-09-12T12:59:21.359Z,1.30
2022-09-12T13:02:22.199Z,3.03
2022-09-12T13:05:22.832Z,1.48
2022-09-12T13:08:28.074Z,1.40
2022-09-12T13:11:29.539Z,1.85
2022-09-12T13:14:51.914Z,1.77
2022-09-12T13:17:44.288Z,2.70
2022-09-12T13:20:35.721Z,1.23
2022-09-12T13:23:27.713Z,1.95
2022-09-12T13:26:26.356Z,2.25
2022-09-12T13:29:16.473Z,1.08
2022-09-12T13:32:04.473Z,2.17
2022-09-12T13:35:07.902Z,3.50
2022-09-12T13:38:00.991Z,3.35
2022-09-12T13:41:04.434Z,2.25
2022-09-12T13:43:51.712Z,1.75
2022-09-12T13:46:39.111Z,1.65
2022-09-12T13:49:33.142Z,2.50
2022-09-12T13:52:26.910Z,3.30
2022-09-12T13:55:27.047Z,1.02
2022-09-12T13:58:21.028Z,2.13
2022-09-12T14:01:13.545Z,1.65
2022-09-12T14:04:18.364Z,2.50
2022-09-12T14:07:13.916Z,2.33
2022-09-12T14:10:04.832Z,1.40
2022-09-12T14:12:52.940Z,1.90
2022-09-12T14:15:40.591Z,1.25
2022-09-12T14:18:29.773Z,1.17
2022-09-12T14:21:28.480Z,1.33
2022-09-12T14:24:15.585Z,3.60
2022-09-12T14:27:03.659Z,1.75
2022-09-12T14:29:53.502Z,1.20
2022-09-12T14:32:41.905Z,1.92
2022-09-12T14:35:28.919Z,3.63
2022-09-12T14:38:22.743Z,1.38
2022-09-12T14:41:11.274Z,2.20
2022-09-12T14:44:01.666Z,1.42
2022-09-12T14:46:49.669Z,1.20
2022-09-12T14:49:38.010Z,3.50
2022-09-12T14:52:28.756Z,3.08
2022-09-12T14:55:29.985Z,1.15
2022-09-12T14:58:24.027Z,1.88
2022-09-12T15:01:26.485Z,1.83
2022-09-12T15:04:33.480Z,2.83
2022-09-12T15:07:30.607Z,2.08
2022-09-12T15:10:23.064Z,1.85
2022-09-12T15:13:19.599Z,1.45
2022-09-12T15:16:10.468Z,1.27
2022-09-12T15:19:00.117Z,1.75
2022-09-12T15:21:46.560Z,2.00
2022-09-12T15:24:33.257Z,7.47
2022-09-12T15:27:20.432Z,2.55
2022-09-12T15:30:08.627Z,3.20
2022-09-12T15:32:56.026Z,2.03
2022-09-12T15:35:44.115Z,1.55
2022-09-12T15:38:32.089Z,3.35
2022-09-12T15:41:20.440Z,1.88
2022-09-12T15:44:08.122Z,2.42
2022-09-12T15:46:55.126Z,1.67
2022-09-12T15:49:42.647Z,1.38
2022-09-12T15:52:31.536Z,2.97
2022-09-12T15:55:20.987Z,2.75
2022-09-12T15:58:07.722Z,3.00
2022-09-12T16:00:54.836Z,1.48
2022-09-12T16:03:41.974Z,2.10
2022-09-12T16:06:32.501Z,3.05
2022-09-12T16:09:25.187Z,1.88
2022-09-12T16:12:12.378Z,1.75
2022-09-12T16:14:59.411Z,2.03
2022-09-12T16:17:46.011Z,1.77
2022-09-12T16:20:32.619Z,1.48
2022-09-12T16:23:19.322Z,3.35
2022-09-12T16:26:08.040Z,1.60
2022-09-12T16:28:57.104Z,1.08
2022-09-12T16:31:43.872Z,6.05
2022-09-12T16:34:30.425Z,1.55
2022-09-12T16:37:17.001Z,3.00
2022-09-12T16:40:04.600Z,2.42
2022-09-12T16:42:53.123Z,1.17
2022-09-12T16:45:40.251Z,1.92
2022-09-12T16:48:27.321Z,3.13
2022-09-12T16:51:15.186Z,1.75
2022-09-12T16:54:02.597Z,2.80
2022-09-12T16:56:50.037Z,2.08
2022-09-12T16:59:38.367Z,2.70
2022-09-12T17:02:25.284Z,2.55
2022-09-12T17:05:12.316Z,2.55
2022-09-12T17:07:59.242Z,2.63
2022-09-12T17:10:45.972Z,2.10
2022-09-12T17:14:00.220Z,2.78
2022-09-12T17:16:43.463Z,2.70
2022-09-12T17:19:32.367Z,2.58
2022-09-12T17:22:19.293Z,2.60
2022-09-12T17:25:07.037Z,1.80
2022-09-12T17:27:53.916Z,2.20
2022-09-12T17:30:41.270Z,4.40
2022-09-12T17:33:30.191Z,2.83
2022-09-12T17:36:18.590Z,5.72
2022-09-12T17:39:05.622Z,3.08
2022-09-12T17:41:53.994Z,1.80
2022-09-12T17:44:41.002Z,2.13
2022-09-12T17:47:28.041Z,5.28
2022-09-12T17:50:31.967Z,3.15
2022-09-12T17:53:21.078Z,5.10
2022-09-12T17:56:09.369Z,5.22
2022-09-12T17:58:57.442Z,4.55
2022-09-12T18:02:01.877Z,5.57
2022-09-12T18:04:48.999Z,4.80
2022-09-12T18:07:38.918Z,2.75
2022-09-12T18:10:29.341Z,3.28
2022-09-12T18:13:16.359Z,4.30
2022-09-12T18:16:08.280Z,4.10
2022-09-12T18:18:55.278Z,2.00
2022-09-12T18:21:41.864Z,6.35
2022-09-12T18:24:28.920Z,6.05
2022-09-12T18:27:17.367Z,4.60
2022-09-12T18:30:20.754Z,3.60
2022-09-12T18:33:08.588Z,3.83
2022-09-12T18:35:55.681Z,2.95
2022-09-12T18:38:44.122Z,4.63
2022-09-12T18:41:31.176Z,5.07
2022-09-12T18:44:19.353Z,3.05
2022-09-12T18:47:06.904Z,7.18
2022-09-12T18:49:53.785Z,3.33
2022-09-12T18:52:40.721Z,8.13
2022-09-12T18:55:27.817Z,6.17
2022-09-12T18:58:14.592Z,3.57
2022-09-12T19:01:10.337Z,2.77
2022-09-12T19:03:57.841Z,7.30
2022-09-12T19:06:46.603Z,2.77
2022-09-12T19:09:33.953Z,3.67
2022-09-12T19:12:21.187Z,5.40
2022-09-12T19:15:09.860Z,2.87
2022-09-12T19:17:57.922Z,5.47
2022-09-12T19:20:44.848Z,2.97
2022-09-12T19:23:32.432Z,2.90
2022-09-12T19:26:20.524Z,3.67
2022-09-12T19:29:08.472Z,3.70
2022-09-12T19:31:56.381Z,4.47
2022-09-12T19:34:44.564Z,4.57
2022-09-12T19:37:31.166Z,3.47
2022-09-12T19:40:18.252Z,2.97
2022-09-12T19:43:05.501Z,4.73
2022-09-12T19:45:53.110Z,2.77
2022-09-12T19:48:39.761Z,3.87
2022-09-12T19:51:27.996Z,7.53
2022-09-12T19:54:15.099Z,6.27
2022-09-12T19:57:01.903Z,3.63
2022-09-12T19:59:48.637Z,3.00
2022-09-12T20:02:36.060Z,4.57
2022-09-12T20:05:22.953Z,5.23
2022-09-12T20:08:11.182Z,3.47
2022-09-12T20:10:58.105Z,4.67
2022-09-12T20:13:45.133Z,2.13
2022-09-12T20:16:33.548Z,2.63
2022-09-12T20:19:20.598Z,2.43
2022-09-12T20:22:07.688Z,3.10
2022-09-12T20:24:55.777Z,6.97
2022-09-12T20:27:42.509Z,2.60
2022-09-12T20:30:29.627Z,2.87
2022-09-12T20:33:16.387Z,3.93
2022-09-12T20:36:08.518Z,4.67
2022-09-12T20:38:57.831Z,8.53
2022-09-12T20:41:46.675Z,3.37
2022-09-12T20:44:33.313Z,3.27
2022-09-12T20:47:20.737Z,5.37
2022-09-12T20:50:08.507Z,4.20
2022-09-12T20:52:55.544Z,3.23
2022-09-12T20:55:50.008Z,3.70
2022-09-12T20:58:43.052Z,3.73
2022-09-12T21:01:31.900Z,2.97
2022-09-12T21:04:19.087Z,5.30
2022-09-12T21:07:06.239Z,2.70
2022-09-12T21:09:54.454Z,2.70
2022-09-12T21:12:41.657Z,2.43
2022-09-12T21:15:29.977Z,3.50
2022-09-12T21:18:17.014Z,3.60
2022-09-12T21:21:04.292Z,4.60
2022-09-12T21:23:51.789Z,5.33
2022-09-12T21:26:38.446Z,2.43
2022-09-12T21:29:25.767Z,3.23
2022-09-12T21:32:14.504Z,3.97
2022-09-12T21:35:01.264Z,2.30
2022-09-12T21:37:48.262Z,3.37
2022-09-12T21:40:35.151Z,3.17
2022-09-12T21:43:22.296Z,2.13
2022-09-12T21:46:10.165Z,2.53
2022-09-12T21:48:58.276Z,4.00
2022-09-12T21:51:45.141Z,2.13
2022-09-12T21:54:32.087Z,2.07
2022-09-12T21:57:18.634Z,6.50
2022-09-12T22:00:06.719Z,3.03
2022-09-12T22:02:53.779Z,1.80
2022-09-12T22:05:41.838Z,3.70
2022-09-12T22:08:30.208Z,2.27
2022-09-12T22:11:19.367Z,1.93
2022-09-12T22:14:06.044Z,1.97
2022-09-12T22:16:52.726Z,2.03
2022-09-12T22:19:39.975Z,1.53
2022-09-12T22:22:45.148Z,2.77
2022-09-12T22:25:32.143Z,2.23
2022-09-12T22:28:19.099Z,3.53
2022-09-12T22:31:06.618Z,3.63
2022-09-12T22:33:57.095Z,2.77
2022-09-12T22:36:44.342Z,2.93
2022-09-12T22:39:32.627Z,2.67
2022-09-12T22:42:19.453Z,2.03
2022-09-12T22:45:07.863Z,3.20
2022-09-12T22:47:57.163Z,2.57
2022-09-12T22:50:46.403Z,4.27
2022-09-12T22:53:33.665Z,3.40
2022-09-12T22:56:22.593Z,2.63
2022-09-12T22:59:10.008Z,3.43
2022-09-12T23:01:57.287Z,2.10
2022-09-12T23:04:44.281Z,3.07
2022-09-12T23:07:31.233Z,3.80
2022-09-12T23:10:17.983Z,1.43
2022-09-12T23:13:06.431Z,4.63
2022-09-12T23:15:58.915Z,3.43
2022-09-12T23:18:46.479Z,3.13
2022-09-12T23:21:33.162Z,2.23
2022-09-12T23:24:20.156Z,2.17
2022-09-12T23:27:07.238Z,2.30
2022-09-12T23:29:55.637Z,2.00
2022-09-12T23:32:42.496Z,2.00
2022-09-12T23:35:29.786Z,3.17
2022-09-12T23:38:16.957Z,3.60
2022-09-12T23:41:04.976Z,3.17
2022-09-12T23:43:52.583Z,3.77
2022-09-12T23:46:40.808Z,1.77
2022-09-12T23:49:27.697Z,1.57
2022-09-12T23:52:14.773Z,4.03
2022-09-12T23:55:01.678Z,3.13
2022-09-12T23:57:48.730Z,2.57
